sensor_id;sensor_type;location;lat;lon;timestamp;pressure;altitude;pressure_sealevel;temperature;humidity
70200;BME280;57587;55.688;37.600;2024-01-15T00:01:18;97434.94;;;-7.28;65.94
70200;BME280;57587;55.688;37.600;2024-01-15T00:03:45;97426.78;;;-7.24;65.29
70200;BME280;57587;55.688;37.600;2024-01-15T00:06:13;97427.56;;;-7.12;65.16
70200;BME280;57587;55.688;37.600;2024-01-15T00:08:41;97416.81;;;-7.19;65.40
70200;BME280;57587;55.688;37.600;2024-01-15T00:11:08;97419.88;;;-7.13;65.04
70200;BME280;57587;55.688;37.600;2024-01-15T00:13:35;97422.78;;;-7.07;65.38
70200;BME280;57587;55.688;37.600;2024-01-15T00:16:04;97405.81;;;-7.11;65.24
70200;BME280;57587;55.688;37.600;2024-01-15T00:18:31;97419.63;;;-7.10;65.18
70200;BME280;57587;55.688;37.600;2024-01-15T00:20:58;97405.56;;;-7.08;65.09
70200;BME280;57587;55.688;37.600;2024-01-15T00:23:26;97410.19;;;-7.11;64.86
70200;BME280;57587;55.688;37.600;2024-01-15T00:25:53;97412.69;;;-7.00;65.27
70200;BME280;57587;55.688;37.600;2024-01-15T00:28:20;97409.94;;;-6.87;64.90
70200;BME280;57587;55.688;37.600;2024-01-15T00:30:47;97406.63;;;-6.89;64.14
70200;BME280;57587;55.688;37.600;2024-01-15T00:33:14;97405.41;;;-6.85;64.35
70200;BME280;57587;55.688;37.600;2024-01-15T00:35:42;97399.69;;;-6.79;64.44
70200;BME280;57587;55.688;37.600;2024-01-15T00:38:09;97403.25;;;-6.80;64.15
70200;BME280;57587;55.688;37.600;2024-01-15T00:40:36;97397.59;;;-6.85;64.64
70200;BME280;57587;55.688;37.600;2024-01-15T00:43:04;97399.19;;;-6.73;64.52
70200;BME280;57587;55.688;37.600;2024-01-15T00:45:31;97393.97;;;-6.73;64.70
70200;BME280;57587;55.688;37.600;2024-01-15T00:47:58;97390.69;;;-6.75;65.08
70200;BME280;57587;55.688;37.600;2024-01-15T00:50:28;97390.69;;;-6.75;64.87
70200;BME280;57587;55.688;37.600;2024-01-15T00:52:55;97382.00;;;-6.64;64.66
70200;BME280;57587;55.688;37.600;2024-01-15T00:55:22;97380.66;;;-6.59;63.95
70200;BME280;57587;55.688;37.600;2024-01-15T00:57:49;97391.31;;;-6.62;65.23
70200;BME280;57587;55.688;37.600;2024-01-15T01:00:17;97379.50;;;-6.66;64.87
70200;BME280;57587;55.688;37.600;2024-01-15T01:02:45;97391.06;;;-6.59;65.33
70200;BME280;57587;55.688;37.600;2024-01-15T01:05:12;97373.97;;;-6.52;64.62
70200;BME280;57587;55.688;37.600;2024-01-15T01:07:39;97378.47;;;-6.54;64.51
70200;BME280;57587;55.688;37.600;2024-01-15T01:10:07;97385.28;;;-6.62;65.16
70200;BME280;57587;55.688;37.600;2024-01-15T01:12:34;97376.63;;;-6.63;65.70
70200;BME280;57587;55.688;37.600;2024-01-15T01:15:02;97365.81;;;-6.68;65.44
70200;BME280;57587;55.688;37.600;2024-01-15T01:17:30;97364.16;;;-6.69;65.78
70200;BME280;57587;55.688;37.600;2024-01-15T01:19:58;97359.66;;;-6.67;65.58
70200;BME280;57587;55.688;37.600;2024-01-15T01:22:25;97361.19;;;-6.64;66.17
70200;BME280;57587;55.688;37.600;2024-01-15T01:24:53;97353.81;;;-6.59;65.93
70200;BME280;57587;55.688;37.600;2024-01-15T01:27:20;97351.06;;;-6.58;65.92
70200;BME280;57587;55.688;37.600;2024-01-15T01:29:47;97347.84;;;-6.50;65.72
70200;BME280;57587;55.688;37.600;2024-01-15T01:32:14;97347.41;;;-6.45;65.26
70200;BME280;57587;55.688;37.600;2024-01-15T01:34:41;97342.38;;;-6.47;65.37
70200;BME280;57587;55.688;37.600;2024-01-15T01:37:12;97349.91;;;-6.44;65.05
70200;BME280;57587;55.688;37.600;2024-01-15T01:39:43;97345.25;;;-6.40;64.98
70200;BME280;57587;55.688;37.600;2024-01-15T01:42:11;97323.91;;;-6.34;65.84
70200;BME280;57587;55.688;37.600;2024-01-15T01:44:38;97337.19;;;-6.37;66.21
70200;BME280;57587;55.688;37.600;2024-01-15T01:47:05;97328.84;;;-6.31;65.34
70200;BME280;57587;55.688;37.600;2024-01-15T01:49:33;97341.56;;;-6.38;65.58
70200;BME280;57587;55.688;37.600;2024-01-15T01:52:05;97341.56;;;-6.38;65.69
70200;BME280;57587;55.688;37.600;2024-01-15T01:54:33;97331.19;;;-6.28;65.50
70200;BME280;57587;55.688;37.600;2024-01-15T01:57:02;97331.19;;;-6.28;65.53
70200;BME280;57587;55.688;37.600;2024-01-15T01:59:31;97324.31;;;-6.29;65.77
70200;BME280;57587;55.688;37.600;2024-01-15T02:02:00;97326.66;;;-6.26;66.37
70200;BME280;57587;55.688;37.600;2024-01-15T02:04:31;97317.63;;;-6.22;66.18
70200;BME280;57587;55.688;37.600;2024-01-15T02:07:00;97329.13;;;-6.24;66.33
70200;BME280;57587;55.688;37.600;2024-01-15T02:09:27;97314.19;;;-6.22;66.43
70200;BME280;57587;55.688;37.600;2024-01-15T02:11:55;97324.59;;;-6.32;66.20
70200;BME280;57587;55.688;37.600;2024-01-15T02:14:22;97329.38;;;-6.37;66.76
70200;BME280;57587;55.688;37.600;2024-01-15T02:16:50;97312.81;;;-6.27;66.71
70200;BME280;57587;55.688;37.600;2024-01-15T02:19:18;97315.06;;;-6.12;66.44
70200;BME280;57587;55.688;37.600;2024-01-15T02:21:45;97318.47;;;-6.02;65.71
70200;BME280;57587;55.688;37.600;2024-01-15T02:24:13;97324.38;;;-6.00;65.80
70200;BME280;57587;55.688;37.600;2024-01-15T02:26:40;97335.06;;;-6.03;65.52
70200;BME280;57587;55.688;37.600;2024-01-15T02:29:08;97316.16;;;-5.95;65.49
70200;BME280;57587;55.688;37.600;2024-01-15T02:31:36;97326.44;;;-6.04;65.43
70200;BME280;57587;55.688;37.600;2024-01-15T02:34:04;97309.84;;;-5.93;65.57
70200;BME280;57587;55.688;37.600;2024-01-15T02:36:32;97315.31;;;-5.86;65.24
70200;BME280;57587;55.688;37.600;2024-01-15T02:38:59;97311.63;;;-5.74;65.01
70200;BME280;57587;55.688;37.600;2024-01-15T02:41:26;97312.97;;;-5.89;65.60
70200;BME280;57587;55.688;37.600;2024-01-15T02:43:53;97315.72;;;-5.81;65.69
70200;BME280;57587;55.688;37.600;2024-01-15T02:46:20;97310.94;;;-5.76;65.54
70200;BME280;57587;55.688;37.600;2024-01-15T02:48:47;97318.59;;;-5.74;65.51
70200;BME280;57587;55.688;37.600;2024-01-15T02:51:15;97310.25;;;-5.78;65.63
70200;BME280;57587;55.688;37.600;2024-01-15T02:53:42;97308.72;;;-5.71;65.41
70200;BME280;57587;55.688;37.600;2024-01-15T02:56:09;97305.75;;;-5.76;65.99
70200;BME280;57587;55.688;37.600;2024-01-15T02:58:36;97300.78;;;-5.60;66.10
70200;BME280;57587;55.688;37.600;2024-01-15T03:01:03;97307.09;;;-5.52;65.31
70200;BME280;57587;55.688;37.600;2024-01-15T03:03:31;97301.47;;;-5.48;65.19
70200;BME280;57587;55.688;37.600;2024-01-15T03:06:01;97301.03;;;-5.43;65.08
70200;BME280;57587;55.688;37.600;2024-01-15T03:08:29;97303.22;;;-5.48;65.24
70200;BME280;57587;55.688;37.600;2024-01-15T03:10:56;97302.97;;;-5.36;65.45
70200;BME280;57587;55.688;37.600;2024-01-15T03:13:24;97288.56;;;-5.40;65.26
70200;BME280;57587;55.688;37.600;2024-01-15T03:15:51;97298.94;;;-5.30;65.00
70200;BME280;57587;55.688;37.600;2024-01-15T03:18:18;97298.00;;;-5.29;65.12
70200;BME280;57587;55.688;37.600;2024-01-15T03:20:45;97291.13;;;-5.30;65.63
70200;BME280;57587;55.688;37.600;2024-01-15T03:23:12;97292.66;;;-5.37;65.53
70200;BME280;57587;55.688;37.600;2024-01-15T03:25:39;97286.63;;;-5.38;65.78
70200;BME280;57587;55.688;37.600;2024-01-15T03:28:06;97285.91;;;-5.30;65.53
70200;BME280;57587;55.688;37.600;2024-01-15T03:30:33;97286.75;;;-5.20;65.40
70200;BME280;57587;55.688;37.600;2024-01-15T03:33:01;97288.22;;;-5.17;65.69
70200;BME280;57587;55.688;37.600;2024-01-15T03:35:28;97288.50;;;-5.11;65.46
70200;BME280;57587;55.688;37.600;2024-01-15T03:37:57;97283.66;;;-5.05;65.44
70200;BME280;57587;55.688;37.600;2024-01-15T03:40:24;97281.75;;;-5.03;65.06
70200;BME280;57587;55.688;37.600;2024-01-15T03:42:53;97281.88;;;-4.95;65.42
70200;BME280;57587;55.688;37.600;2024-01-15T03:45:21;97277.31;;;-4.93;65.12
70200;BME280;57587;55.688;37.600;2024-01-15T03:47:48;97274.19;;;-4.97;65.86
70200;BME280;57587;55.688;37.600;2024-01-15T03:50:15;97274.47;;;-5.00;65.54
70200;BME280;57587;55.688;37.600;2024-01-15T03:52:42;97277.06;;;-5.00;65.41
70200;BME280;57587;55.688;37.600;2024-01-15T03:55:09;97272.53;;;-4.98;66.04
70200;BME280;57587;55.688;37.600;2024-01-15T03:57:36;97274.34;;;-4.98;65.22
70200;BME280;57587;55.688;37.600;2024-01-15T04:00:04;97279.25;;;-4.95;65.75
70200;BME280;57587;55.688;37.600;2024-01-15T04:02:32;97281.22;;;-5.07;66.05
70200;BME280;57587;55.688;37.600;2024-01-15T04:04:59;97264.75;;;-5.07;66.21
70200;BME280;57587;55.688;37.600;2024-01-15T04:07:27;97265.13;;;-5.02;66.78
70200;BME280;57587;55.688;37.600;2024-01-15T04:09:54;97268.13;;;-4.97;67.85
70200;BME280;57587;55.688;37.600;2024-01-15T04:12:21;97261.13;;;-4.97;66.98
70200;BME280;57587;55.688;37.600;2024-01-15T04:14:49;97260.59;;;-5.00;67.43
70200;BME280;57587;55.688;37.600;2024-01-15T04:17:16;97267.41;;;-4.90;67.33
70200;BME280;57587;55.688;37.600;2024-01-15T04:19:46;97267.97;;;-4.96;67.49
70200;BME280;57587;55.688;37.600;2024-01-15T04:22:15;97271.16;;;-4.92;67.30
70200;BME280;57587;55.688;37.600;2024-01-15T04:24:42;97255.06;;;-4.88;67.55
70200;BME280;57587;55.688;37.600;2024-01-15T04:27:09;97257.13;;;-4.91;66.76
70200;BME280;57587;55.688;37.600;2024-01-15T04:29:39;97265.75;;;-4.81;67.19
70200;BME280;57587;55.688;37.600;2024-01-15T04:32:07;97256.38;;;-4.74;66.97
70200;BME280;57587;55.688;37.600;2024-01-15T04:34:34;97256.16;;;-4.90;67.27
70200;BME280;57587;55.688;37.600;2024-01-15T04:37:02;97259.75;;;-4.91;67.48
70200;BME280;57587;55.688;37.600;2024-01-15T04:39:29;97252.75;;;-4.91;67.53
70200;BME280;57587;55.688;37.600;2024-01-15T04:41:56;97252.63;;;-4.89;68.12
70200;BME280;57587;55.688;37.600;2024-01-15T04:44:23;97257.25;;;-4.83;67.63
70200;BME280;57587;55.688;37.600;2024-01-15T04:46:51;97253.50;;;-4.80;67.37
70200;BME280;57587;55.688;37.600;2024-01-15T04:49:18;97255.19;;;-4.79;67.25
70200;BME280;57587;55.688;37.600;2024-01-15T04:51:45;97254.59;;;-4.73;67.76
70200;BME280;57587;55.688;37.600;2024-01-15T04:54:12;97254.66;;;-4.83;67.48
70200;BME280;57587;55.688;37.600;2024-01-15T04:56:44;97251.47;;;-4.77;67.72
70200;BME280;57587;55.688;37.600;2024-01-15T04:59:11;97258.31;;;-4.76;67.90
70200;BME280;57587;55.688;37.600;2024-01-15T05:01:39;97249.78;;;-4.78;68.61
70200;BME280;57587;55.688;37.600;2024-01-15T05:04:06;97247.66;;;-4.65;68.67
70200;BME280;57587;55.688;37.600;2024-01-15T05:06:33;97253.81;;;-4.56;68.54
70200;BME280;57587;55.688;37.600;2024-01-15T05:09:00;97251.69;;;-4.70;68.71
70200;BME280;57587;55.688;37.600;2024-01-15T05:11:27;97251.06;;;-4.54;68.79
70200;BME280;57587;55.688;37.600;2024-01-15T05:13:54;97248.53;;;-4.46;68.65
70200;BME280;57587;55.688;37.600;2024-01-15T05:16:22;97252.31;;;-4.58;68.54
70200;BME280;57587;55.688;37.600;2024-01-15T05:18:49;97244.47;;;-4.58;68.66
70200;BME280;57587;55.688;37.600;2024-01-15T05:21:16;97243.22;;;-4.54;68.38
70200;BME280;57587;55.688;37.600;2024-01-15T05:23:43;97239.94;;;-4.56;68.59
70200;BME280;57587;55.688;37.600;2024-01-15T05:26:11;97241.97;;;-4.50;69.03
70200;BME280;57587;55.688;37.600;2024-01-15T05:28:38;97242.84;;;-4.59;69.29
70200;BME280;57587;55.688;37.600;2024-01-15T05:31:07;97246.78;;;-4.55;69.19
70200;BME280;57587;55.688;37.600;2024-01-15T05:33:34;97246.22;;;-4.49;69.24
70200;BME280;57587;55.688;37.600;2024-01-15T05:36:02;97249.06;;;-4.43;68.98
70200;BME280;57587;55.688;37.600;2024-01-15T05:38:29;97247.00;;;-4.39;69.34
70200;BME280;57587;55.688;37.600;2024-01-15T05:40:56;97239.22;;;-4.49;69.23
70200;BME280;57587;55.688;37.600;2024-01-15T05:43:23;97241.38;;;-4.44;69.17
70200;BME280;57587;55.688;37.600;2024-01-15T05:45:50;97245.72;;;-4.35;69.48
70200;BME280;57587;55.688;37.600;2024-01-15T05:48:18;97246.75;;;-4.28;68.42
70200;BME280;57587;55.688;37.600;2024-01-15T05:50:45;97247.44;;;-4.26;68.63
70200;BME280;57587;55.688;37.600;2024-01-15T05:53:12;97243.56;;;-4.22;68.73
70200;BME280;57587;55.688;37.600;2024-01-15T05:55:39;97247.44;;;-4.26;68.10
70200;BME280;57587;55.688;37.600;2024-01-15T05:58:07;97249.66;;;-4.31;68.96
70200;BME280;57587;55.688;37.600;2024-01-15T06:00:34;97238.34;;;-4.22;68.70
70200;BME280;57587;55.688;37.600;2024-01-15T06:03:02;97248.44;;;-4.27;68.82
70200;BME280;57587;55.688;37.600;2024-01-15T06:05:29;97241.81;;;-4.21;68.35
70200;BME280;57587;55.688;37.600;2024-01-15T06:07:57;97244.25;;;-4.20;68.33
70200;BME280;57587;55.688;37.600;2024-01-15T06:10:24;97249.84;;;-4.14;67.97
70200;BME280;57587;55.688;37.600;2024-01-15T06:12:51;97241.44;;;-4.08;68.46
70200;BME280;57587;55.688;37.600;2024-01-15T06:15:18;97250.91;;;-4.07;68.47
70200;BME280;57587;55.688;37.600;2024-01-15T06:17:45;97243.88;;;-4.07;68.63
70200;BME280;57587;55.688;37.600;2024-01-15T06:20:13;97251.13;;;-4.01;68.09
70200;BME280;57587;55.688;37.600;2024-01-15T06:22:40;97247.69;;;-4.01;68.91
70200;BME280;57587;55.688;37.600;2024-01-15T06:25:07;97248.06;;;-3.96;68.43
70200;BME280;57587;55.688;37.600;2024-01-15T06:27:35;97255.22;;;-3.98;68.28
70200;BME280;57587;55.688;37.600;2024-01-15T06:30:02;97252.44;;;-3.97;68.34
70200;BME280;57587;55.688;37.600;2024-01-15T06:32:31;97252.25;;;-3.85;68.53
70200;BME280;57587;55.688;37.600;2024-01-15T06:34:58;97248.88;;;-3.78;68.50
70200;BME280;57587;55.688;37.600;2024-01-15T06:37:26;97244.91;;;-3.64;68.03
70200;BME280;57587;55.688;37.600;2024-01-15T06:39:53;97244.38;;;-3.50;67.85
70200;BME280;57587;55.688;37.600;2024-01-15T06:42:20;97253.69;;;-3.47;67.41
70200;BME280;57587;55.688;37.600;2024-01-15T06:44:49;97252.75;;;-3.38;67.38
70200;BME280;57587;55.688;37.600;2024-01-15T06:47:16;97256.06;;;-3.36;67.04
70200;BME280;57587;55.688;37.600;2024-01-15T06:49:44;97247.59;;;-3.30;66.86
70200;BME280;57587;55.688;37.600;2024-01-15T06:52:11;97247.59;;;-3.30;67.23
70200;BME280;57587;55.688;37.600;2024-01-15T06:54:39;97246.09;;;-3.32;67.38
70200;BME280;57587;55.688;37.600;2024-01-15T06:57:06;97251.84;;;-3.29;67.35
70200;BME280;57587;55.688;37.600;2024-01-15T06:59:34;97244.22;;;-3.22;67.69
70200;BME280;57587;55.688;37.600;2024-01-15T07:02:04;97252.41;;;-3.17;67.19
70200;BME280;57587;55.688;37.600;2024-01-15T07:04:31;97248.19;;;-3.10;66.82
70200;BME280;57587;55.688;37.600;2024-01-15T07:06:58;97257.91;;;-3.02;66.67
70200;BME280;57587;55.688;37.600;2024-01-15T07:09:25;97249.44;;;-2.96;66.59
70200;BME280;57587;55.688;37.600;2024-01-15T07:11:52;97256.34;;;-2.87;66.58
70200;BME280;57587;55.688;37.600;2024-01-15T07:14:20;97247.25;;;-2.74;66.50
70200;BME280;57587;55.688;37.600;2024-01-15T07:16:47;97236.84;;;-2.58;66.52
70200;BME280;57587;55.688;37.600;2024-01-15T07:19:15;97234.72;;;-2.63;65.92
70200;BME280;57587;55.688;37.600;2024-01-15T07:21:42;97247.75;;;-2.71;66.26
70200;BME280;57587;55.688;37.600;2024-01-15T07:24:10;97239.09;;;-2.71;66.55
70200;BME280;57587;55.688;37.600;2024-01-15T07:26:38;97243.03;;;-2.67;66.67
70200;BME280;57587;55.688;37.600;2024-01-15T07:29:05;97248.56;;;-2.70;66.52
70200;BME280;57587;55.688;37.600;2024-01-15T07:31:32;97246.31;;;-2.57;66.69
70200;BME280;57587;55.688;37.600;2024-01-15T07:33:59;97241.75;;;-2.55;66.58
70200;BME280;57587;55.688;37.600;2024-01-15T07:36:27;97244.56;;;-2.57;66.32
70200;BME280;57587;55.688;37.600;2024-01-15T07:38:54;97241.31;;;-2.42;66.33
70200;BME280;57587;55.688;37.600;2024-01-15T07:41:21;97242.13;;;-2.42;66.25
70200;BME280;57587;55.688;37.600;2024-01-15T07:43:49;97240.03;;;-2.30;66.46
70200;BME280;57587;55.688;37.600;2024-01-15T07:46:16;97238.91;;;-2.27;65.96
70200;BME280;57587;55.688;37.600;2024-01-15T07:48:43;97246.22;;;-2.39;66.42
70200;BME280;57587;55.688;37.600;2024-01-15T07:51:11;97245.44;;;-2.32;67.05
70200;BME280;57587;55.688;37.600;2024-01-15T07:53:38;97242.84;;;-2.23;66.20
70200;BME280;57587;55.688;37.600;2024-01-15T07:56:05;97245.78;;;-2.18;65.69
70200;BME280;57587;55.688;37.600;2024-01-15T07:58:32;97244.16;;;-2.11;66.76
70200;BME280;57587;55.688;37.600;2024-01-15T08:00:59;97243.53;;;-2.05;66.15
70200;BME280;57587;55.688;37.600;2024-01-15T08:03:26;97234.38;;;-2.01;65.96
70200;BME280;57587;55.688;37.600;2024-01-15T08:05:54;97239.78;;;-1.94;66.07
70200;BME280;57587;55.688;37.600;2024-01-15T08:08:22;97236.00;;;-2.00;66.19
70200;BME280;57587;55.688;37.600;2024-01-15T08:10:49;97237.34;;;-1.79;66.09
70200;BME280;57587;55.688;37.600;2024-01-15T08:13:17;97234.72;;;-1.88;65.76
70200;BME280;57587;55.688;37.600;2024-01-15T08:15:44;97239.97;;;-1.71;65.90
70200;BME280;57587;55.688;37.600;2024-01-15T08:18:11;97238.31;;;-1.56;65.53
70200;BME280;57587;55.688;37.600;2024-01-15T08:20:39;97249.81;;;-1.57;65.58
70200;BME280;57587;55.688;37.600;2024-01-15T08:23:06;97230.47;;;-1.64;65.72
70200;BME280;57587;55.688;37.600;2024-01-15T08:25:33;97239.13;;;-1.55;65.72
70200;BME280;57587;55.688;37.600;2024-01-15T08:28:00;97240.31;;;-1.58;65.56
70200;BME280;57587;55.688;37.600;2024-01-15T08:30:27;97245.19;;;-1.55;65.59
70200;BME280;57587;55.688;37.600;2024-01-15T08:32:56;97243.41;;;-1.54;65.53
70200;BME280;57587;55.688;37.600;2024-01-15T08:35:34;97241.91;;;-1.49;65.50
70200;BME280;57587;55.688;37.600;2024-01-15T08:38:02;97244.72;;;-1.67;65.97
70200;BME280;57587;55.688;37.600;2024-01-15T08:40:29;97249.78;;;-1.49;66.16
70200;BME280;57587;55.688;37.600;2024-01-15T08:42:58;97247.16;;;-1.41;66.32
70200;BME280;57587;55.688;37.600;2024-01-15T08:45:25;97248.47;;;-1.36;66.23
70200;BME280;57587;55.688;37.600;2024-01-15T08:47:55;97248.66;;;-1.30;65.66
70200;BME280;57587;55.688;37.600;2024-01-15T08:50:22;97253.38;;;-1.33;65.14
70200;BME280;57587;55.688;37.600;2024-01-15T08:52:50;97243.72;;;-1.33;65.11
70200;BME280;57587;55.688;37.600;2024-01-15T08:55:18;97234.69;;;-1.22;65.63
70200;BME280;57587;55.688;37.600;2024-01-15T08:57:48;97237.63;;;-1.17;64.76
70200;BME280;57587;55.688;37.600;2024-01-15T09:00:16;97239.06;;;-1.06;64.73
70200;BME280;57587;55.688;37.600;2024-01-15T09:02:44;97238.88;;;-0.97;65.25
70200;BME280;57587;55.688;37.600;2024-01-15T09:05:11;97242.16;;;-0.95;64.19
70200;BME280;57587;55.688;37.600;2024-01-15T09:07:39;97237.34;;;-0.75;63.85
70200;BME280;57587;55.688;37.600;2024-01-15T09:10:06;97240.56;;;-0.56;63.57
70200;BME280;57587;55.688;37.600;2024-01-15T09:12:43;97239.75;;;-0.57;62.97
70200;BME280;57587;55.688;37.600;2024-01-15T09:15:26;97238.72;;;-0.48;63.10
70200;BME280;57587;55.688;37.600;2024-01-15T09:17:53;97236.97;;;-0.55;62.82
70200;BME280;57587;55.688;37.600;2024-01-15T09:20:20;97235.16;;;-0.63;63.01
70200;BME280;57587;55.688;37.600;2024-01-15T09:22:47;97244.72;;;-0.62;64.10
70200;BME280;57587;55.688;37.600;2024-01-15T09:25:14;97229.56;;;-0.60;63.47
70200;BME280;57587;55.688;37.600;2024-01-15T09:27:41;97220.38;;;-0.56;63.14
70200;BME280;57587;55.688;37.600;2024-01-15T09:30:09;97229.56;;;-0.60;63.62
70200;BME280;57587;55.688;37.600;2024-01-15T09:32:36;97229.56;;;-0.60;63.77
70200;BME280;57587;55.688;37.600;2024-01-15T09:35:04;97227.06;;;-0.45;63.51
70200;BME280;57587;55.688;37.600;2024-01-15T09:37:32;97229.78;;;-0.30;63.57
70200;BME280;57587;55.688;37.600;2024-01-15T09:40:13;97239.41;;;-0.54;63.48
70200;BME280;57587;55.688;37.600;2024-01-15T09:42:42;97234.59;;;-0.42;63.86
70200;BME280;57587;55.688;37.600;2024-01-15T09:45:11;97225.66;;;-0.25;63.34
70200;BME280;57587;55.688;37.600;2024-01-15T09:47:38;97237.00;;;-0.32;63.67
70200;BME280;57587;55.688;37.600;2024-01-15T09:50:10;97232.44;;;-0.38;63.55
70200;BME280;57587;55.688;37.600;2024-01-15T09:52:38;97233.81;;;-0.51;63.24
70200;BME280;57587;55.688;37.600;2024-01-15T09:55:09;97230.50;;;-0.44;63.21
70200;BME280;57587;55.688;37.600;2024-01-15T09:57:36;97240.75;;;-0.66;63.97
70200;BME280;57587;55.688;37.600;2024-01-15T10:00:05;97235.44;;;-0.50;65.15
70200;BME280;57587;55.688;37.600;2024-01-15T10:02:35;97246.00;;;-0.66;64.63
70200;BME280;57587;55.688;37.600;2024-01-15T10:05:02;97242.25;;;-0.63;64.41
70200;BME280;57587;55.688;37.600;2024-01-15T10:07:34;97246.34;;;-0.69;64.19
70200;BME280;57587;55.688;37.600;2024-01-15T10:10:02;97239.06;;;-0.51;63.91
70200;BME280;57587;55.688;37.600;2024-01-15T10:12:30;97242.22;;;-0.55;63.76
70200;BME280;57587;55.688;37.600;2024-01-15T10:14:58;97241.56;;;-0.57;63.45
70200;BME280;57587;55.688;37.600;2024-01-15T10:17:25;97237.44;;;-0.52;63.61
70200;BME280;57587;55.688;37.600;2024-01-15T10:19:56;97238.13;;;-0.58;63.16
70200;BME280;57587;55.688;37.600;2024-01-15T10:22:23;97237.66;;;-0.61;63.95
70200;BME280;57587;55.688;37.600;2024-01-15T10:24:51;97241.56;;;-0.65;63.89
70200;BME280;57587;55.688;37.600;2024-01-15T10:27:18;97246.81;;;-0.65;64.09
70200;BME280;57587;55.688;37.600;2024-01-15T10:29:45;97245.75;;;-0.79;64.50
70200;BME280;57587;55.688;37.600;2024-01-15T10:32:12;97233.75;;;-0.74;64.55
70200;BME280;57587;55.688;37.600;2024-01-15T10:34:40;97237.66;;;-0.61;64.35
70200;BME280;57587;55.688;37.600;2024-01-15T10:37:09;97240.88;;;-0.51;64.15
70200;BME280;57587;55.688;37.600;2024-01-15T10:39:37;97242.75;;;-0.68;64.39
70200;BME280;57587;55.688;37.600;2024-01-15T10:42:05;97246.06;;;-0.82;65.26
70200;BME280;57587;55.688;37.600;2024-01-15T10:44:35;97249.16;;;-0.71;65.79
70200;BME280;57587;55.688;37.600;2024-01-15T10:47:02;97244.72;;;-0.70;65.00
70200;BME280;57587;55.688;37.600;2024-01-15T10:49:30;97232.59;;;-0.71;65.49
70200;BME280;57587;55.688;37.600;2024-01-15T10:52:03;97234.22;;;-0.70;65.10
70200;BME280;57587;55.688;37.600;2024-01-15T10:54:31;97237.69;;;-0.78;65.38
70200;BME280;57587;55.688;37.600;2024-01-15T10:56:58;97228.38;;;-0.97;65.09
70200;BME280;57587;55.688;37.600;2024-01-15T10:59:26;97234.09;;;-0.85;65.24
70200;BME280;57587;55.688;37.600;2024-01-15T11:01:53;97236.56;;;-0.83;65.15
70200;BME280;57587;55.688;37.600;2024-01-15T11:04:22;97246.34;;;-0.69;65.39
70200;BME280;57587;55.688;37.600;2024-01-15T11:06:53;97235.97;;;-0.54;64.47
70200;BME280;57587;55.688;37.600;2024-01-15T11:09:23;97240.69;;;-0.50;64.35
70200;BME280;57587;55.688;37.600;2024-01-15T11:11:54;97237.25;;;-0.50;64.04
70200;BME280;57587;55.688;37.600;2024-01-15T11:15:00;97238.78;;;-0.56;64.07
70200;BME280;57587;55.688;37.600;2024-01-15T11:17:21;97238.34;;;-0.76;64.73
70200;BME280;57587;55.688;37.600;2024-01-15T11:19:50;97241.44;;;-0.72;64.96
70200;BME280;57587;55.688;37.600;2024-01-15T11:25:03;97237.50;;;-0.68;64.39
70200;BME280;57587;55.688;37.600;2024-01-15T11:27:40;97234.38;;;-0.72;64.63
70200;BME280;57587;55.688;37.600;2024-01-15T11:30:09;97221.88;;;-0.61;64.95
70200;BME280;57587;55.688;37.600;2024-01-15T11:32:38;97223.00;;;-0.56;64.32
70200;BME280;57587;55.688;37.600;2024-01-15T11:35:10;97225.13;;;-0.59;64.06
70200;BME280;57587;55.688;37.600;2024-01-15T11:40:42;97216.72;;;-0.47;63.74
70200;BME280;57587;55.688;37.600;2024-01-15T11:43:22;97222.69;;;-0.53;63.69
70200;BME280;57587;55.688;37.600;2024-01-15T11:45:51;97223.78;;;-0.47;63.95
70200;BME280;57587;55.688;37.600;2024-01-15T11:48:19;97233.56;;;-0.72;64.33
70200;BME280;57587;55.688;37.600;2024-01-15T11:50:50;97219.88;;;-0.59;64.55
70200;BME280;57587;55.688;37.600;2024-01-15T11:53:33;97225.31;;;-0.53;64.26
70200;BME280;57587;55.688;37.600;2024-01-15T11:56:15;97215.88;;;-0.47;64.03
70200;BME280;57587;55.688;37.600;2024-01-15T11:58:54;97219.00;;;-0.43;63.56
70200;BME280;57587;55.688;37.600;2024-01-15T12:01:23;97218.50;;;-0.39;63.37
70200;BME280;57587;55.688;37.600;2024-01-15T12:03:52;97233.13;;;-0.44;63.33
70200;BME280;57587;55.688;37.600;2024-01-15T12:06:20;97224.47;;;-0.53;63.53
70200;BME280;57587;55.688;37.600;2024-01-15T12:08:47;97225.66;;;-0.56;63.70
70200;BME280;57587;55.688;37.600;2024-01-15T12:11:16;97227.94;;;-0.61;64.16
70200;BME280;57587;55.688;37.600;2024-01-15T12:13:45;97212.94;;;-0.83;65.60
70200;BME280;57587;55.688;37.600;2024-01-15T12:16:13;97221.63;;;-0.83;65.20
70200;BME280;57587;55.688;37.600;2024-01-15T12:18:40;97232.63;;;-0.87;65.39
70200;BME280;57587;55.688;37.600;2024-01-15T12:21:09;97223.09;;;-0.80;65.50
70200;BME280;57587;55.688;37.600;2024-01-15T12:23:36;97221.44;;;-0.73;65.29
70200;BME280;57587;55.688;37.600;2024-01-15T12:26:03;97221.25;;;-0.72;65.08
70200;BME280;57587;55.688;37.600;2024-01-15T12:28:31;97226.31;;;-0.62;65.24
70200;BME280;57587;55.688;37.600;2024-01-15T12:30:59;97223.72;;;-0.70;65.05
70200;BME280;57587;55.688;37.600;2024-01-15T12:33:27;97223.84;;;-0.63;65.06
70200;BME280;57587;55.688;37.600;2024-01-15T12:35:55;97227.00;;;-0.68;65.01
70200;BME280;57587;55.688;37.600;2024-01-15T12:38:22;97220.75;;;-0.67;64.96
70200;BME280;57587;55.688;37.600;2024-01-15T12:40:49;97222.50;;;-0.59;65.21
70200;BME280;57587;55.688;37.600;2024-01-15T12:43:17;97229.72;;;-0.53;65.05
70200;BME280;57587;55.688;37.600;2024-01-15T12:45:45;97232.72;;;-0.64;65.31
70200;BME280;57587;55.688;37.600;2024-01-15T12:48:12;97223.34;;;-0.59;65.31
70200;BME280;57587;55.688;37.600;2024-01-15T12:50:43;97223.50;;;-0.52;65.32
70200;BME280;57587;55.688;37.600;2024-01-15T12:53:11;97215.81;;;-0.62;65.40
70200;BME280;57587;55.688;37.600;2024-01-15T12:55:38;97215.53;;;-0.75;65.71
70200;BME280;57587;55.688;37.600;2024-01-15T12:58:05;97218.81;;;-0.73;65.90
70200;BME280;57587;55.688;37.600;2024-01-15T13:00:36;97219.75;;;-0.66;66.33